Time;durP1;ratioP1;P1;durP2;ratioP2;P2;SDS_P1;SDS_P2;PMS_P1;PMS_P2;Temp;Humidity;BMP_temperature;BMP_pressure;BME280_temperature;BME280_humidity;BME280_pressure;Samples;Min_cycle;Max_cycle;Signal;HPM_P1;HPM_P2
2021/04/02 00:00:58;;;;;;;7.23;3.10;;;;;;;5.53;100.00;99581.49;1779681;80;21374;-76
2021/04/02 00:03:30;;;;;;;4.10;3.30;;;;;;;5.48;100.00;99578.73;1779456;80;20986;-77
2021/04/02 00:05:57;;;;;;;4.87;3.27;;;;;;;5.45;100.00;99572.83;1779525;80;20899;-78
2021/04/02 00:08:26;;;;;;;4.23;2.17;;;;;;;5.41;100.00;99573.63;1761318;80;20959;-78
2021/04/02 00:11:01;;;;;;;3.57;2.57;;;;;;;5.37;100.00;99577.61;1754122;81;21007;-77
2021/04/02 00:13:31;;;;;;;6.60;3.03;;;;;;;5.32;100.00;99567.32;1754274;81;21757;-78
2021/04/02 00:15:59;;;;;;;2.63;1.47;;;;;;;5.30;100.00;99561.77;1754376;81;20923;-78
2021/04/02 00:18:27;;;;;;;4.70;2.47;;;;;;;5.27;100.00;99567.42;1754223;81;21014;-77
2021/04/02 00:20:59;;;;;;;10.63;4.53;;;;;;;5.23;100.00;99562.02;1771429;80;20982;-78
2021/04/02 00:23:27;;;;;;;10.00;3.80;;;;;;;5.20;100.00;99563.15;1778286;80;21029;-78
2021/04/02 00:25:55;;;;;;;5.10;3.10;;;;;;;5.18;100.00;99564.30;1778370;80;21597;-78
2021/04/02 00:28:26;;;;;;;7.20;3.27;;;;;;;5.12;100.00;99566.58;1778356;80;21021;-77
2021/04/02 00:30:56;;;;;;;3.37;2.70;;;;;;;5.09;100.00;99568.70;1778455;80;20942;-77
2021/04/02 00:33:29;;;;;;;6.03;3.13;;;;;;;5.05;100.00;99565.98;1780977;80;20996;-77
2021/04/02 00:35:57;;;;;;;4.87;2.20;;;;;;;5.02;100.00;99566.27;1754314;81;21019;-76
2021/04/02 00:38:25;;;;;;;4.10;1.70;;;;;;;5.02;100.00;99565.77;1754286;81;21378;-76
2021/04/02 00:40:57;;;;;;;1.77;1.60;;;;;;;5.04;100.00;99567.80;1754235;81;21627;-77
2021/04/02 00:43:34;;;;;;;4.30;2.37;;;;;;;5.06;100.00;99560.45;1749273;81;20971;-76
2021/04/02 00:46:03;;;;;;;5.03;2.40;;;;;;;5.07;100.00;99561.31;1729176;83;21019;-77
2021/04/02 00:48:32;;;;;;;3.03;1.90;;;;;;;5.05;100.00;99549.91;1729210;83;21031;-78
2021/04/02 00:51:13;;;;;;;11.17;3.53;;;;;;;5.03;100.00;99542.48;1729233;81;21209;-78
2021/04/02 00:53:42;;;;;;;8.63;3.70;;;;;;;5.00;100.00;99545.48;1729262;83;21054;-77
2021/04/02 00:56:13;;;;;;;5.63;1.93;;;;;;;4.95;100.00;99541.39;1728884;83;20960;-78
2021/04/02 00:58:41;;;;;;;5.13;2.37;;;;;;;4.93;100.00;99535.84;1729269;83;21692;-77
2021/04/02 01:01:11;;;;;;;6.63;3.47;;;;;;;4.89;100.00;99530.44;1729151;81;21102;-78
2021/04/02 01:03:39;;;;;;;2.00;1.40;;;;;;;4.87;100.00;99536.41;1729231;83;21372;-77
2021/04/02 01:06:15;;;;;;;6.63;2.67;;;;;;;4.84;100.00;99534.89;1729199;83;21034;-77
2021/04/02 01:08:50;;;;;;;4.10;2.13;;;;;;;4.86;100.00;99529.38;1801063;77;26791;-78
2021/04/02 01:11:20;;;;;;;1.57;1.47;;;;;;;4.81;100.00;99528.98;1754536;80;20920;-77
2021/04/02 01:13:53;;;;;;;4.77;2.43;;;;;;;4.78;100.00;99513.19;1753681;81;21206;-77
2021/04/02 01:16:31;;;;;;;2.07;1.97;;;;;;;4.76;100.00;99511.99;1753463;80;21027;-77
2021/04/02 01:19:20;;;;;;;2.00;1.13;;;;;;;4.76;100.00;99513.33;1753735;81;20904;-77
2021/04/02 01:21:57;;;;;;;0.97;0.97;;;;;;;4.74;100.00;99506.78;1717911;82;20947;-77
2021/04/02 01:24:57;;;;;;;2.03;0.97;;;;;;;4.73;100.00;99505.61;1738316;82;21527;-77
2021/04/02 01:27:34;;;;;;;1.80;1.20;;;;;;;4.71;100.00;99503.55;1738217;82;21188;-78
2021/04/02 01:30:10;;;;;;;1.30;1.13;;;;;;;4.68;100.00;99501.19;1689141;84;21042;-77
2021/04/02 01:32:47;;;;;;;8.80;2.80;;;;;;;4.68;100.00;99499.84;1845855;76;26949;-77
2021/04/02 01:35:34;;;;;;;13.67;3.10;;;;;;;4.63;100.00;99494.92;1811093;79;21450;-76
2021/04/02 01:38:19;;;;;;;11.13;4.70;;;;;;;4.60;100.00;99491.69;1815596;78;20925;-77
2021/04/02 01:40:53;;;;;;;3.57;2.13;;;;;;;4.58;100.00;99489.16;1815590;79;21593;-77
2021/04/02 01:43:25;;;;;;;12.20;4.42;;;;;;;4.56;100.00;99487.12;1784817;79;21019;-77
2021/04/02 01:45:54;;;;;;;8.48;4.67;;;;;;;4.53;100.00;99482.05;1767961;81;21040;-78
2021/04/02 01:48:22;;;;;;;11.37;4.93;;;;;;;4.53;100.00;99490.95;1729771;81;20985;-77
2021/04/02 01:50:53;;;;;;;5.50;3.87;;;;;;;4.50;100.00;99482.37;1760171;81;22304;-77
2021/04/02 01:53:25;;;;;;;2.67;2.47;;;;;;;4.47;100.00;99479.47;1760169;81;21112;-77
2021/04/02 01:55:54;;;;;;;4.12;2.50;;;;;;;4.45;100.00;99480.11;1760331;81;21597;-78
2021/04/02 01:58:23;;;;;;;4.97;2.83;;;;;;;4.42;100.00;99483.08;1759901;81;20957;-77
2021/04/02 02:00:55;;;;;;;5.17;3.37;;;;;;;4.37;100.00;99480.85;1760188;81;20991;-76
2021/04/02 02:03:31;;;;;;;2.33;1.93;;;;;;;4.37;100.00;99477.31;1845111;76;26523;-76
2021/04/02 02:06:02;;;;;;;7.17;3.30;;;;;;;4.29;100.00;99478.04;1815518;79;20952;-78
2021/04/02 02:08:35;;;;;;;2.97;2.57;;;;;;;4.26;100.00;99475.64;1811481;77;21337;-77
2021/04/02 02:11:15;;;;;;;3.63;2.27;;;;;;;4.22;100.00;99475.59;1815673;79;21024;-77
2021/04/02 02:13:52;;;;;;;1.50;1.40;;;;;;;4.21;100.00;99476.57;1767126;79;21541;-78
2021/04/02 02:16:23;;;;;;;2.63;2.33;;;;;;;4.18;100.00;99475.04;1766951;81;20968;-78
2021/04/02 02:18:56;;;;;;;3.20;1.50;;;;;;;4.17;100.00;99467.16;1767166;81;21074;-77
2021/04/02 02:21:24;;;;;;;2.08;1.92;;;;;;;4.18;100.00;99468.85;1851672;77;22076;-77
2021/04/02 02:23:54;;;;;;;3.03;1.60;;;;;;;4.18;100.00;99470.19;1861135;77;21586;-77
2021/04/02 02:26:23;;;;;;;1.70;1.30;;;;;;;4.17;100.00;99476.02;1840643;77;21013;-77
2021/04/02 02:28:53;;;;;;;3.43;1.87;;;;;;;4.16;100.00;99471.67;1861441;77;21009;-77
2021/04/02 02:31:22;;;;;;;3.60;2.23;;;;;;;4.14;100.00;99471.45;1861335;76;21439;-77
2021/04/02 02:33:51;;;;;;;4.47;2.30;;;;;;;4.12;100.00;99467.57;1861582;76;21140;-78
2021/04/02 02:36:21;;;;;;;3.33;1.83;;;;;;;4.10;100.00;99468.21;1862104;76;20969;-78
2021/04/02 02:38:50;;;;;;;2.20;2.00;;;;;;;4.09;100.00;99463.00;1861206;77;21472;-78
2021/04/02 02:41:18;;;;;;;1.70;1.20;;;;;;;4.05;100.00;99456.26;1861087;77;21392;-78
2021/04/02 02:43:47;;;;;;;5.37;2.23;;;;;;;4.04;100.00;99462.11;1861352;77;20969;-78
2021/04/02 02:46:16;;;;;;;2.03;1.33;;;;;;;4.04;100.00;99457.23;1867979;76;21192;-77
2021/04/02 02:48:49;;;;;;;2.50;1.80;;;;;;;4.03;100.00;99455.06;1861127;77;20972;-78
2021/04/02 02:51:18;;;;;;;1.90;1.53;;;;;;;3.99;100.00;99453.67;1868414;76;20926;-77
2021/04/02 02:53:47;;;;;;;2.13;1.17;;;;;;;3.99;100.00;99461.69;1840368;77;21550;-77
2021/04/02 02:56:16;;;;;;;2.50;1.30;;;;;;;3.96;100.00;99458.80;1840579;77;20956;-77
2021/04/02 02:58:44;;;;;;;4.77;2.03;;;;;;;3.94;100.00;99459.94;1840369;77;21184;-78
2021/04/02 03:01:14;;;;;;;2.13;1.83;;;;;;;3.91;100.00;99460.22;1840044;77;21151;-77
2021/04/02 03:03:43;;;;;;;7.43;2.13;;;;;;;3.87;100.00;99460.16;1861242;76;20930;-78
2021/04/02 03:06:13;;;;;;;3.30;2.30;;;;;;;3.83;100.00;99463.61;1840424;77;20985;-77
2021/04/02 03:08:45;;;;;;;8.37;3.27;;;;;;;3.79;100.00;99459.55;1784237;76;20944;-78
2021/04/02 03:11:16;;;;;;;2.53;1.77;;;;;;;3.76;100.00;99461.16;1767323;81;22085;-77
2021/04/02 03:13:45;;;;;;;1.43;1.33;;;;;;;3.74;100.00;99455.11;1767115;81;21020;-77
2021/04/02 03:16:15;;;;;;;1.47;0.87;;;;;;;3.70;100.00;99454.55;1766670;79;20972;-78
2021/04/02 03:18:48;;;;;;;0.93;0.90;;;;;;;3.68;100.00;99452.98;1766895;81;21055;-78
2021/04/02 03:21:18;;;;;;;1.32;1.22;;;;;;;3.65;100.00;99452.79;1805056;79;21559;-78
2021/04/02 03:23:48;;;;;;;1.33;1.13;;;;;;;3.63;100.00;99456.09;1734927;82;21610;-78
2021/04/02 03:26:18;;;;;;;2.97;1.77;;;;;;;3.61;100.00;99452.23;1765375;81;20942;-77
2021/04/02 03:28:46;;;;;;;4.07;2.73;;;;;;;3.60;100.00;99447.84;1717517;82;21033;-78
2021/04/02 03:31:15;;;;;;;1.23;1.10;;;;;;;3.58;100.00;99445.81;1768156;81;21486;-77
2021/04/02 03:33:51;;;;;;;0.60;0.60;;;;;;;3.60;100.00;99441.67;1718140;82;20962;-77
2021/04/02 03:36:22;;;;;;;1.20;1.13;;;;;;;3.58;100.00;99439.13;1766066;81;21195;-78
2021/04/02 03:38:51;;;;;;;3.43;1.63;;;;;;;3.59;100.00;99443.98;1714352;82;21671;-78
2021/04/02 03:41:28;;;;;;;2.73;1.90;;;;;;;3.58;100.00;99435.63;1760146;81;21136;-77
2021/04/02 03:43:58;;;;;;;1.50;1.40;;;;;;;3.58;100.00;99443.64;1734881;82;21492;-78
2021/04/02 03:46:26;;;;;;;1.03;1.03;;;;;;;3.59;100.00;99438.63;1732912;81;21574;-78
2021/04/02 03:48:56;;;;;;;5.77;2.10;;;;;;;3.60;100.00;99437.66;1733035;81;22369;-77
2021/04/02 03:51:26;;;;;;;5.47;2.30;;;;;;;3.60;100.00;99441.16;1734883;82;21016;-78
2021/04/02 03:54:00;;;;;;;7.10;2.60;;;;;;;3.61;100.00;99436.19;1764836;81;21009;-77
2021/04/02 03:56:31;;;;;;;6.80;3.67;;;;;;;3.62;100.00;99433.01;1735009;82;20993;-78
2021/04/02 03:58:59;;;;;;;3.83;2.50;;;;;;;3.64;100.00;99428.86;1733205;81;20962;-77
2021/04/02 04:01:32;;;;;;;4.60;3.03;;;;;;;3.66;100.00;99430.39;1734880;82;21493;-77
2021/04/02 04:04:02;;;;;;;4.87;3.90;;;;;;;3.69;100.00;99430.12;1762444;81;20949;-77
2021/04/02 04:06:32;;;;;;;3.33;2.17;;;;;;;3.71;100.00;99421.45;1731748;82;20950;-76
2021/04/02 04:09:09;;;;;;;8.60;5.40;;;;;;;3.74;100.00;99427.86;1736268;81;20949;-77
2021/04/02 04:11:37;;;;;;;7.50;4.43;;;;;;;3.77;100.00;99420.03;1732849;82;20934;-76
2021/04/02 04:14:06;;;;;;;4.37;3.07;;;;;;;3.80;100.00;99420.59;1735627;81;22296;-79
2021/04/02 04:16:38;;;;;;;3.03;2.53;;;;;;;3.86;100.00;99419.67;1735711;82;21036;-77
2021/04/02 04:19:06;;;;;;;2.80;1.80;;;;;;;3.90;100.00;99425.95;1735315;82;20996;-77
2021/04/02 04:21:40;;;;;;;6.62;3.47;;;;;;;3.95;100.00;99423.69;1758211;81;21018;-76
2021/04/02 04:24:18;;;;;;;6.80;4.17;;;;;;;4.01;100.00;99420.92;1732099;82;20977;-77
2021/04/02 04:26:49;;;;;;;1.83;1.73;;;;;;;4.09;100.00;99421.53;1762668;81;21416;-77
2021/04/02 04:29:23;;;;;;;2.77;2.57;;;;;;;4.17;100.00;99414.97;1716494;83;21478;-77
2021/04/02 04:31:51;;;;;;;13.53;3.77;;;;;;;4.27;100.00;99414.45;1730049;83;21555;-76
2021/04/02 04:34:19;;;;;;;3.70;2.57;;;;;;;4.37;100.00;99411.25;1740486;81;21490;-76
2021/04/02 04:36:47;;;;;;;6.83;3.83;;;;;;;4.49;100.00;99411.05;1762229;81;21614;-77
2021/04/02 04:39:15;;;;;;;10.57;3.97;;;;;;;4.62;100.00;99411.58;1750757;82;21321;-75
2021/04/02 04:41:44;;;;;;;7.80;3.80;;;;;;;4.75;100.00;99404.52;1762134;81;21044;-78
2021/04/02 04:44:13;;;;;;;10.20;4.07;;;;;;;4.87;100.00;99403.80;1762395;81;21068;-76
2021/04/02 04:46:41;;;;;;;14.83;5.53;;;;;;;5.00;100.00;99398.11;1762303;81;20990;-78
2021/04/02 04:49:09;;;;;;;8.97;4.10;;;;;;;5.11;100.00;99398.72;1762163;81;21021;-76
2021/04/02 04:51:37;;;;;;;4.67;3.57;;;;;;;5.21;100.00;99398.66;1762601;81;21191;-75
2021/04/02 04:54:05;;;;;;;6.97;4.13;;;;;;;5.31;100.00;99395.89;1762172;81;21138;-76
2021/04/02 04:56:33;;;;;;;7.57;4.53;;;;;;;5.40;100.00;99392.80;1736034;81;21077;-77
2021/04/02 04:59:03;;;;;;;8.23;3.53;;;;;;;5.50;100.00;99397.58;1762468;81;21064;-78
2021/04/02 05:01:40;;;;;;;8.57;4.43;;;;;;;5.60;100.00;99387.62;1763850;81;21510;-77
2021/04/02 05:04:08;;;;;;;8.33;4.53;;;;;;;5.73;100.00;99387.21;1770832;81;21166;-76
2021/04/02 05:06:38;;;;;;;4.00;3.43;;;;;;;5.86;100.00;99388.14;1746267;81;20929;-77
2021/04/02 05:09:06;;;;;;;7.87;4.23;;;;;;;5.97;100.00;99385.76;1723511;81;21048;-76
2021/04/02 05:11:37;;;;;;;7.50;4.00;;;;;;;6.06;100.00;99391.00;1763486;81;21142;-77
2021/04/02 05:14:07;;;;;;;9.43;4.37;;;;;;;6.20;100.00;99386.07;1757945;81;20999;-76
2021/04/02 05:16:35;;;;;;;9.17;4.53;;;;;;;6.32;100.00;99390.16;1793080;80;21191;-78
2021/04/02 05:19:04;;;;;;;8.37;3.60;;;;;;;6.46;100.00;99383.33;1793085;80;20980;-79
2021/04/02 05:21:33;;;;;;;4.07;2.77;;;;;;;6.61;100.00;99386.27;1816710;77;21013;-77
2021/04/02 05:24:03;;;;;;;6.70;4.17;;;;;;;6.75;100.00;99386.98;1845643;77;21048;-76
2021/04/02 05:26:31;;;;;;;10.13;4.87;;;;;;;6.87;100.00;99386.20;1856114;77;21027;-77
2021/04/02 05:28:59;;;;;;;8.17;4.47;;;;;;;6.99;100.00;99384.03;1860721;77;21645;-77
2021/04/02 05:31:27;;;;;;;11.87;4.50;;;;;;;7.06;100.00;99378.33;1860642;77;21056;-76
2021/04/02 05:33:57;;;;;;;8.67;3.97;;;;;;;7.17;100.00;99379.38;1861523;76;21487;-77
2021/04/02 05:36:25;;;;;;;6.77;4.87;;;;;;;7.34;100.00;99381.58;1860742;76;20957;-76
2021/04/02 05:38:52;;;;;;;16.13;5.30;;;;;;;7.45;100.00;99375.03;1860896;77;21017;-76
2021/04/02 05:41:30;;;;;;;5.83;3.70;;;;;;;7.54;100.00;99382.12;1861047;76;21341;-77
2021/04/02 05:44:03;;;;;;;6.70;3.60;;;;;;;7.67;100.00;99378.08;1860866;77;20929;-77
2021/04/02 05:46:31;;;;;;;10.50;5.25;;;;;;;7.82;100.00;99376.37;1862537;76;21088;-78
2021/04/02 05:49:03;;;;;;;9.37;4.40;;;;;;;7.87;100.00;99369.98;1862778;77;20914;-80
2021/04/02 05:51:32;;;;;;;12.20;6.00;;;;;;;7.92;100.00;99378.39;1862353;76;20945;-79
2021/04/02 05:54:01;;;;;;;11.57;5.47;;;;;;;8.02;100.00;99380.91;1862148;77;21343;-77
2021/04/02 05:56:29;;;;;;;11.97;5.70;;;;;;;8.14;100.00;99376.85;1862704;77;20973;-81
2021/04/02 05:58:58;;;;;;;12.43;5.23;;;;;;;8.21;100.00;99389.10;1862721;77;21066;-78
2021/04/02 06:01:26;;;;;;;9.53;3.40;;;;;;;8.28;100.00;99383.87;1861753;76;20874;-77
2021/04/02 06:03:54;;;;;;;11.53;5.57;;;;;;;8.43;100.00;99386.72;1861805;75;20977;-76
2021/04/02 06:06:22;;;;;;;10.57;5.13;;;;;;;8.60;100.00;99380.77;1861376;77;21188;-76
2021/04/02 06:08:52;;;;;;;10.83;5.17;;;;;;;8.77;100.00;99374.82;1817385;77;20962;-76
2021/04/02 06:11:20;;;;;;;14.77;5.90;;;;;;;8.88;100.00;99381.16;1714926;82;20938;-76
2021/04/02 06:13:49;;;;;;;7.53;4.67;;;;;;;8.93;100.00;99375.56;1770781;81;21058;-77
2021/04/02 06:16:17;;;;;;;8.20;4.43;;;;;;;9.08;100.00;99375.66;1770978;81;20986;-76
2021/04/02 06:18:45;;;;;;;9.00;4.47;;;;;;;9.25;100.00;99367.46;1771086;81;21012;-76
2021/04/02 06:21:13;;;;;;;10.47;5.27;;;;;;;9.41;100.00;99373.25;1769630;81;21053;-77
2021/04/02 06:23:41;;;;;;;8.13;5.07;;;;;;;9.56;100.00;99363.85;1769050;81;21007;-76
2021/04/02 06:26:11;;;;;;;9.10;5.10;;;;;;;9.69;100.00;99363.58;1766064;81;20940;-76
2021/04/02 06:28:40;;;;;;;9.17;5.03;;;;;;;9.81;100.00;99350.48;1766542;81;20927;-76
2021/04/02 06:31:12;;;;;;;11.80;6.37;;;;;;;9.93;100.00;99352.73;1766815;81;21358;-76
2021/04/02 06:33:52;;;;;;;8.10;4.87;;;;;;;10.01;100.00;99350.79;1766336;81;21042;-75
2021/04/02 06:36:28;;;;;;;9.03;5.13;;;;;;;10.15;100.00;99345.08;1766315;81;21046;-75
2021/04/02 06:39:03;;;;;;;10.50;4.67;;;;;;;10.41;100.00;99350.55;1766244;81;21053;-74
2021/04/02 06:41:33;;;;;;;9.77;5.47;;;;;;;10.68;100.00;99351.77;1750168;81;21594;-73
2021/04/02 06:44:05;;;;;;;6.50;3.43;;;;;;;10.91;100.00;99346.22;1744183;81;22176;-71
2021/04/02 06:46:38;;;;;;;12.10;5.83;;;;;;;11.05;100.00;99349.91;1749477;81;21609;-67
2021/04/02 06:49:20;;;;;;;10.50;5.87;;;;;;;11.18;100.00;99343.28;1755861;81;21652;-67
2021/04/02 06:51:52;;;;;;;7.37;4.40;;;;;;;11.44;100.00;99344.59;1746713;81;21004;-68
2021/04/02 06:54:27;;;;;;;11.08;5.45;;;;;;;11.63;100.00;99335.48;1763807;80;21610;-69
2021/04/02 06:57:06;;;;;;;6.40;3.98;;;;;;;11.88;100.00;99333.17;1745114;81;21056;-69
2021/04/02 06:59:34;;;;;;;7.70;4.28;;;;;;;12.01;100.00;99331.96;1649035;85;21674;-70
2021/04/02 07:02:04;;;;;;;6.45;3.40;;;;;;;11.98;100.00;99329.64;1651053;85;21283;-69
2021/04/02 07:04:33;;;;;;;7.35;3.92;;;;;;;12.12;100.00;99318.38;1673609;85;21598;-69
2021/04/02 07:07:06;;;;;;;8.98;4.30;;;;;;;12.28;100.00;99315.34;1661895;84;21595;-69
2021/04/02 07:09:37;;;;;;;6.58;3.75;;;;;;;12.60;100.00;99310.28;1677193;84;21380;-69
2021/04/02 07:14:52;;;;;;;11.63;4.10;;;;;;;12.99;100.00;99293.00;1611843;89;21587;-70
2021/04/02 07:17:20;;;;;;;6.70;4.10;;;;;;;13.04;100.00;99292.69;1565203;90;21292;-69
2021/04/02 07:19:48;;;;;;;5.37;3.75;;;;;;;13.24;100.00;99285.96;1608748;88;20973;-70
2021/04/02 07:22:15;;;;;;;7.80;3.72;;;;;;;13.41;100.00;99286.94;1602058;89;21232;-69
2021/04/02 07:24:44;;;;;;;5.97;3.00;;;;;;;13.46;100.00;99292.05;1628926;88;21291;-71
2021/04/02 07:27:12;;;;;;;8.23;4.10;;;;;;;13.51;100.00;99283.30;1601531;88;21265;-69
2021/04/02 07:29:40;;;;;;;6.37;3.47;;;;;;;13.59;100.00;99278.17;1630397;88;21183;-70
2021/04/02 07:32:08;;;;;;;7.37;3.72;;;;;;;13.74;100.00;99283.38;1605071;89;21216;-68
2021/04/02 07:34:36;;;;;;;5.42;3.42;;;;;;;13.98;100.00;99275.92;1630206;88;21358;-68
2021/04/02 07:37:05;;;;;;;4.58;3.10;;;;;;;14.12;100.00;99274.55;1602791;89;21091;-69
2021/04/02 07:39:34;;;;;;;2.62;2.42;;;;;;;14.30;100.00;99279.30;1630149;88;21005;-70
2021/04/02 07:42:03;;;;;;;3.55;2.77;;;;;;;14.50;100.00;99284.16;1602614;89;21247;-69
2021/04/02 07:44:37;;;;;;;6.08;2.67;;;;;;;14.63;100.00;99271.59;1628549;84;21099;-67
2021/04/02 07:47:08;;;;;;;3.87;3.02;;;;;;;14.69;100.00;99281.06;1687534;84;21582;-67
2021/04/02 07:49:41;;;;;;;2.67;2.47;;;;;;;14.71;100.00;99271.32;1691050;84;21085;-70
2021/04/02 07:52:17;;;;;;;4.87;3.33;;;;;;;14.99;100.00;99268.23;1846504;76;22766;-69
2021/04/02 07:54:45;;;;;;;5.53;3.02;;;;;;;15.15;100.00;99264.98;1817919;79;21410;-70
2021/04/02 07:57:18;;;;;;;3.02;2.08;;;;;;;15.26;99.93;99267.52;1817882;79;21792;-68
2021/04/02 07:59:47;;;;;;;3.40;2.45;;;;;;;15.38;99.94;99258.12;1815745;79;21035;-70
2021/04/02 08:02:17;;;;;;;6.30;2.87;;;;;;;15.60;99.91;99259.95;1815705;79;21542;-71
2021/04/02 08:04:56;;;;;;;4.55;2.33;;;;;;;15.85;94.92;99257.23;1815661;79;20933;-68
2021/04/02 08:07:41;;;;;;;4.83;2.62;;;;;;;15.91;91.43;99257.68;1801638;78;21584;-70
2021/04/02 08:10:14;;;;;;;5.58;2.92;;;;;;;15.68;86.84;99248.75;1669722;86;21215;-73
2021/04/02 08:12:42;;;;;;;5.12;3.55;;;;;;;15.68;86.84;99248.75;1669583;86;21658;-70
2021/04/02 08:15:16;;;;;;;3.30;2.67;;;;;;;15.67;84.51;99244.88;1669419;86;21587;-71
2021/04/02 08:17:50;;;;;;;3.97;2.70;;;;;;;15.71;85.35;99243.39;1852270;76;23241;-71
2021/04/02 08:20:20;;;;;;;3.33;2.98;;;;;;;15.65;81.90;99249.73;1843559;77;21482;-72
2021/04/02 08:22:50;;;;;;;5.40;2.95;;;;;;;15.59;81.01;99245.19;1828255;78;21191;-72
2021/04/02 08:25:21;;;;;;;2.60;2.40;;;;;;;15.62;79.86;99244.21;1828475;78;21531;-74
2021/04/02 08:27:49;;;;;;;2.10;1.82;;;;;;;15.74;76.19;99253.83;1828239;78;21001;-73
2021/04/02 08:30:18;;;;;;;2.42;2.22;;;;;;;16.01;76.51;99231.81;1828215;78;21627;-73
2021/04/02 08:32:49;;;;;;;3.27;1.95;;;;;;;16.14;68.73;99231.11;1828695;78;21522;-69
2021/04/02 08:35:19;;;;;;;3.95;2.72;;;;;;;16.14;68.55;99230.28;1858946;76;22199;-71
2021/04/02 08:38:04;;;;;;;6.92;2.77;;;;;;;16.23;65.69;99231.64;1869735;76;21049;-70
2021/04/02 08:40:35;;;;;;;3.95;2.25;;;;;;;16.28;63.68;99222.78;1869944;76;20988;-71
2021/04/02 08:43:04;;;;;;;4.33;2.25;;;;;;;16.37;62.51;99212.41;1870248;76;21047;-69
2021/04/02 08:45:36;;;;;;;2.60;2.40;;;;;;;16.45;62.21;99221.62;1869958;76;21617;-71
2021/04/02 08:48:05;;;;;;;3.67;2.12;;;;;;;16.57;61.49;99206.13;1813391;79;21360;-73
2021/04/02 08:50:34;;;;;;;4.10;2.42;;;;;;;16.69;61.37;99208.38;1813050;79;21005;-71
2021/04/02 08:53:07;;;;;;;1.87;1.72;;;;;;;16.92;61.27;99200.02;1813351;79;21000;-69
2021/04/02 08:55:34;;;;;;;2.30;1.98;;;;;;;17.18;57.26;99195.22;1813368;79;21045;-71
2021/04/02 08:58:03;;;;;;;3.52;2.60;;;;;;;17.24;55.53;99210.11;1813214;79;21147;-72
2021/04/02 09:00:31;;;;;;;2.87;1.85;;;;;;;17.31;51.56;99196.89;1813351;79;21149;-72
2021/04/02 09:02:59;;;;;;;6.95;3.52;;;;;;;17.27;50.94;99204.73;1790094;79;21613;-71
2021/04/02 09:05:27;;;;;;;2.62;2.17;;;;;;;17.18;48.66;99200.14;1762241;79;21126;-71
2021/04/02 09:07:58;;;;;;;2.72;2.20;;;;;;;17.22;49.59;99205.42;1778014;79;20950;-70
2021/04/02 09:10:27;;;;;;;4.00;2.40;;;;;;;17.35;47.20;99192.61;1783186;80;21019;-71
2021/04/02 09:12:55;;;;;;;3.58;3.05;;;;;;;17.31;51.52;99188.70;1777595;80;21294;-70
2021/04/02 09:15:31;;;;;;;3.12;2.25;;;;;;;17.30;52.07;99196.07;1775800;80;21012;-71
2021/04/02 09:18:18;;;;;;;1.27;1.17;;;;;;;17.27;45.12;99186.97;1775913;80;20937;-71
2021/04/02 09:20:53;;;;;;;2.30;1.97;;;;;;;17.30;45.63;99176.94;1890256;76;26589;-73
2021/04/02 09:23:21;;;;;;;3.75;2.60;;;;;;;17.31;46.55;99181.32;1861410;77;20979;-72
2021/04/02 09:25:56;;;;;;;2.60;1.12;;;;;;;17.39;47.59;99186.45;1827903;77;21812;-72
2021/04/02 09:28:26;;;;;;;1.72;1.62;;;;;;;17.51;47.26;99178.78;1860674;77;21071;-73
2021/04/02 09:31:25;;;;;;;3.83;2.37;;;;;;;17.54;43.69;99176.94;1861279;77;20975;-74
2021/04/02 09:33:57;;;;;;;2.20;2.00;;;;;;;17.35;45.50;99176.22;1861237;77;21416;-74
2021/04/02 09:36:29;;;;;;;3.25;1.57;;;;;;;17.27;48.33;99176.04;1861248;77;21408;-74
2021/04/02 09:39:17;;;;;;;2.30;1.82;;;;;;;17.20;49.94;99169.31;1861149;77;21354;-76
2021/04/02 09:41:54;;;;;;;1.42;1.32;;;;;;;17.31;49.06;99172.30;1861106;77;20939;-75
2021/04/02 09:44:26;;;;;;;5.95;2.00;;;;;;;17.58;46.84;99165.31;1861380;77;21030;-77
2021/04/02 09:47:06;;;;;;;5.95;2.90;;;;;;;17.75;44.72;99175.52;1861129;77;20987;-72
2021/04/02 09:49:36;;;;;;;3.50;2.10;;;;;;;17.67;44.65;99167.15;1824642;78;20990;-73
2021/04/02 09:52:05;;;;;;;4.37;1.98;;;;;;;17.58;46.63;99157.63;1824617;78;22187;-72
2021/04/02 09:54:33;;;;;;;1.92;1.70;;;;;;;17.71;45.53;99163.41;1814775;77;21000;-69
2021/04/02 09:57:05;;;;;;;1.00;1.00;;;;;;;17.73;45.58;99160.70;1824055;77;21048;-70
2021/04/02 09:59:33;;;;;;;1.40;1.30;;;;;;;17.88;42.29;99162.14;1785008;79;21177;-71
2021/04/02 10:02:02;;;;;;;4.08;1.72;;;;;;;17.91;39.56;99167.14;1781543;79;20993;-73
2021/04/02 10:04:30;;;;;;;2.98;2.00;;;;;;;17.73;39.06;99153.05;1756843;81;21468;-74
2021/04/02 10:07:01;;;;;;;2.22;1.67;;;;;;;17.47;41.21;99153.83;1784751;80;21358;-74
2021/04/02 10:09:29;;;;;;;1.82;1.52;;;;;;;17.40;43.48;99151.20;1774135;80;21097;-72
2021/04/02 10:11:59;;;;;;;2.50;1.72;;;;;;;17.51;43.07;99150.08;1753407;80;20993;-77
2021/04/02 10:14:29;;;;;;;2.22;2.02;;;;;;;17.41;40.59;99172.55;1763911;80;21017;-71
2021/04/02 10:16:58;;;;;;;1.60;1.50;;;;;;;17.13;39.25;99154.94;1755914;81;22443;-72
2021/04/02 10:19:27;;;;;;;2.87;1.75;;;;;;;16.86;39.36;99153.17;1778795;80;21625;-73
2021/04/02 10:21:55;;;;;;;1.85;1.65;;;;;;;16.63;41.26;99160.73;1758915;80;21124;-74
2021/04/02 10:24:24;;;;;;;1.77;1.65;;;;;;;16.57;41.90;99148.83;1754640;80;21092;-72
2021/04/02 10:26:55;;;;;;;1.98;1.87;;;;;;;16.62;40.32;99147.60;1764324;80;21072;-75
2021/04/02 10:29:23;;;;;;;1.77;1.30;;;;;;;16.66;39.54;99158.88;1767603;80;21207;-72
2021/04/02 10:31:50;;;;;;;1.50;1.32;;;;;;;16.66;39.50;99147.97;1717662;83;21032;-77
2021/04/02 10:34:18;;;;;;;3.80;2.35;;;;;;;16.72;39.21;99129.85;1756067;80;21042;-74
2021/04/02 10:36:46;;;;;;;1.80;1.70;;;;;;;16.61;40.42;99136.41;1736316;80;21032;-73
2021/04/02 10:39:14;;;;;;;6.65;2.42;;;;;;;16.53;41.62;99131.80;1746093;80;20961;-73
2021/04/02 10:41:42;;;;;;;3.33;1.62;;;;;;;16.55;41.68;99125.58;1759423;80;21197;-73
2021/04/02 10:44:10;;;;;;;1.30;1.20;;;;;;;16.47;41.92;99127.57;1714995;82;21185;-74
2021/04/02 10:46:38;;;;;;;2.17;1.57;;;;;;;16.37;43.59;99123.73;1773053;80;21092;-74
2021/04/02 10:49:06;;;;;;;2.65;2.45;;;;;;;16.26;44.84;99122.63;1715405;82;21700;-74
2021/04/02 10:51:35;;;;;;;1.90;1.52;;;;;;;16.13;49.29;99118.19;1719369;81;21175;-74
2021/04/02 10:54:03;;;;;;;2.00;1.25;;;;;;;16.09;50.97;99115.06;1750612;82;21643;-72
2021/04/02 10:56:32;;;;;;;5.60;1.92;;;;;;;16.01;52.65;99111.84;1731364;81;21197;-74
2021/04/02 10:59:00;;;;;;;3.33;2.10;;;;;;;15.90;54.29;99114.78;1723099;82;21100;-73
2021/04/02 11:01:27;;;;;;;2.72;1.95;;;;;;;15.92;55.22;99105.33;1723323;82;21078;-73
2021/04/02 11:03:55;;;;;;;9.55;2.00;;;;;;;15.98;57.09;99115.84;1780672;79;21412;-74
2021/04/02 11:06:23;;;;;;;2.15;1.75;;;;;;;16.02;58.76;99102.59;1798022;79;21264;-76
2021/04/02 11:08:51;;;;;;;5.37;2.08;;;;;;;15.99;61.20;99106.62;1771938;79;20963;-74
2021/04/02 11:11:19;;;;;;;2.80;2.30;;;;;;;16.01;61.92;99098.22;1765236;81;21000;-77
2021/04/02 11:13:48;;;;;;;2.98;2.10;;;;;;;15.90;61.17;99089.73;1741829;81;21187;-78
2021/04/02 11:16:16;;;;;;;4.20;2.65;;;;;;;15.77;62.40;99094.52;1800460;79;21653;-77
2021/04/02 11:18:46;;;;;;;3.30;2.35;;;;;;;15.66;64.62;99087.36;1797101;79;21198;-76
2021/04/02 11:21:14;;;;;;;2.30;2.00;;;;;;;15.64;66.11;99085.94;1784817;80;21067;-76
2021/04/02 11:23:41;;;;;;;2.60;1.95;;;;;;;15.64;66.11;99085.94;1784670;80;20950;-79
2021/04/02 11:26:11;;;;;;;2.37;1.95;;;;;;;15.60;63.94;99090.16;1784339;80;21011;-77
2021/04/02 11:28:40;;;;;;;7.20;2.92;;;;;;;15.49;64.98;99078.13;1805585;79;21013;-75
2021/04/02 11:31:08;;;;;;;5.60;2.52;;;;;;;15.31;68.03;99073.50;1799354;79;21366;-76
2021/04/02 11:33:36;;;;;;;4.22;3.00;;;;;;;15.22;70.07;99070.78;1794803;80;21044;-74
2021/04/02 11:36:06;;;;;;;5.40;3.45;;;;;;;15.13;73.51;99056.63;1794479;80;20958;-74
2021/04/02 11:38:36;;;;;;;3.40;2.45;;;;;;;15.14;74.08;99059.12;1794463;80;21036;-75
2021/04/02 11:41:04;;;;;;;4.15;2.60;;;;;;;15.11;75.03;99073.18;1794610;80;20937;-72
2021/04/02 11:43:33;;;;;;;4.92;3.35;;;;;;;15.09;74.15;99067.12;1794784;80;22531;-73
2021/04/02 11:46:01;;;;;;;3.72;2.62;;;;;;;15.06;73.44;99062.13;1794551;80;20942;-76
2021/04/02 11:48:29;;;;;;;2.30;2.10;;;;;;;15.08;74.71;99064.09;1794528;79;21606;-73
2021/04/02 11:50:57;;;;;;;2.90;2.58;;;;;;;15.08;76.12;99055.92;1794245;80;21037;-76